Time;durP1;ratioP1;P1;durP2;ratioP2;P2;SDS_P1;SDS_P2;PMS_P1;PMS_P2;Temp;Humidity;BMP_temperature;BMP_pressure;BME280_temperature;BME280_humidity;BME280_pressure;Samples;Min_cycle;Max_cycle;Signal;HPM_P1;HPM_P2
2022/01/26 00:07:40;;;;;;;23.23;10.23;;;6.10;56.30;;;;;;6317694;28;20063;-70
2022/01/26 00:10:41;;;;;;;28.77;11.38;;;6.10;56.40;;;;;;6318057;28;20047;-70
2022/01/26 00:13:41;;;;;;;31.30;11.82;;;6.20;56.50;;;;;;6293482;28;20426;-70
2022/01/26 00:16:44;;;;;;;31.45;11.48;;;6.10;56.50;;;;;;6316736;28;20034;-70
2022/01/26 00:19:57;;;;;;;22.83;10.25;;;6.10;56.50;;;;;;6297617;28;20020;-70
2022/01/26 00:23:18;;;;;;;32.67;11.50;;;6.10;56.50;;;;;;6299985;28;20055;-70
2022/01/26 00:29:41;;;;;;;32.53;11.50;;;6.10;56.70;;;;;;6317780;28;20025;-70
2022/01/26 00:39:20;;;;;;;31.80;11.52;;;6.00;56.80;;;;;;6315188;28;20562;-70
2022/01/26 00:42:22;;;;;;;30.63;12.93;;;6.00;56.80;;;;;;6316733;28;20032;-70
2022/01/26 00:45:27;;;;;;;26.75;12.02;;;6.00;56.80;;;;;;6299916;28;20035;-70
2022/01/26 00:48:31;;;;;;;28.33;11.27;;;5.90;56.80;;;;;;6283098;28;20443;-70
2022/01/26 00:51:32;;;;;;;31.80;10.50;;;5.90;56.90;;;;;;6283093;28;20035;-70
2022/01/26 00:54:34;;;;;;;31.25;12.02;;;5.80;57.00;;;;;;6299558;28;20457;-70
2022/01/26 00:57:35;;;;;;;29.73;11.48;;;5.80;57.10;;;;;;6317174;28;20077;-70
2022/01/26 01:00:36;;;;;;;21.98;9.90;;;5.70;57.20;;;;;;6299777;28;20031;-69
2022/01/26 01:03:42;;;;;;;25.85;10.65;;;5.70;57.30;;;;;;6298611;28;20108;-69
2022/01/26 01:06:51;;;;;;;22.75;10.75;;;5.70;57.40;;;;;;6316591;28;20040;-69
2022/01/26 01:09:51;;;;;;;27.33;10.88;;;5.70;57.50;;;;;;6279183;28;20066;-69
2022/01/26 01:12:56;;;;;;;38.08;12.18;;;5.60;57.60;;;;;;6317651;28;20028;-69
2022/01/26 01:15:58;;;;;;;33.40;12.48;;;5.60;57.70;;;;;;6293482;28;20249;-69
2022/01/26 01:31:54;;;;;;;26.05;10.68;;;5.70;57.80;;;;;;6315563;28;20115;-69
2022/01/26 01:34:55;;;;;;;25.52;11.18;;;5.70;57.90;;;;;;6321349;28;20376;-70
2022/01/26 01:37:57;;;;;;;29.00;10.98;;;5.60;57.90;;;;;;6317466;28;20066;-70
2022/01/26 01:40:57;;;;;;;25.48;11.30;;;5.70;57.90;;;;;;6284533;28;20348;-70
2022/01/26 01:43:59;;;;;;;24.90;10.65;;;5.70;58.00;;;;;;6321519;28;20110;-70
2022/01/26 01:47:00;;;;;;;32.88;11.38;;;5.70;58.00;;;;;;6314844;28;20036;-70
2022/01/26 01:50:07;;;;;;;24.35;10.77;;;5.60;57.90;;;;;;6303277;28;20035;-70
2022/01/26 01:53:14;;;;;;;24.40;9.90;;;5.60;57.90;;;;;;6320530;28;20024;-70
2022/01/26 01:56:17;;;;;;;47.92;13.90;;;5.60;58.00;;;;;;6321435;28;20031;-70
2022/01/26 01:59:18;;;;;;;29.98;11.30;;;5.60;58.00;;;;;;6320219;28;20020;-70
2022/01/26 02:02:19;;;;;;;32.47;12.13;;;5.50;58.00;;;;;;6285951;28;20035;-70
2022/01/26 02:05:20;;;;;;;32.72;11.98;;;5.50;58.10;;;;;;6302428;28;20055;-70
2022/01/26 02:08:21;;;;;;;26.33;11.18;;;5.50;58.10;;;;;;6300397;28;20115;-70
2022/01/26 02:11:22;;;;;;;27.30;10.15;;;5.50;58.40;;;;;;6297537;28;20024;-70
2022/01/26 02:14:35;;;;;;;33.22;12.23;;;5.50;58.30;;;;;;6303121;28;20028;-70
2022/01/26 02:17:52;;;;;;;26.50;11.00;;;5.40;58.40;;;;;;6304976;28;20040;-70
2022/01/26 02:51:31;;;;;;;25.35;9.80;;;4.90;59.20;;;;;;6243844;28;20048;-71
2022/01/26 03:01:42;;;;;;;26.27;10.30;;;4.80;59.50;;;;;;6279014;28;20089;-71
2022/01/26 03:04:48;;;;;;;29.20;12.82;;;4.70;59.60;;;;;;6319587;28;20031;-71
2022/01/26 03:07:55;;;;;;;29.27;10.93;;;4.70;59.70;;;;;;6318714;28;20602;-69
2022/01/26 03:11:00;;;;;;;28.23;9.98;;;4.70;59.80;;;;;;6319674;28;20020;-69
2022/01/26 03:14:18;;;;;;;27.30;10.40;;;4.70;59.80;;;;;;6301680;28;20039;-69
2022/01/26 03:20:34;;;;;;;23.60;9.10;;;4.70;59.90;;;;;;6319057;28;20031;-69
2022/01/26 03:36:54;;;;;;;21.75;10.38;;;4.60;60.20;;;;;;6318679;28;20412;-69
2022/01/26 03:39:55;;;;;;;43.50;11.52;;;4.60;60.20;;;;;;6315470;28;20453;-69
2022/01/26 03:42:58;;;;;;;22.10;9.77;;;4.70;60.30;;;;;;6316912;28;20036;-70
2022/01/26 03:45:58;;;;;;;27.75;11.27;;;4.60;60.20;;;;;;6300216;28;20038;-70
2022/01/26 03:49:00;;;;;;;26.70;10.80;;;4.60;60.20;;;;;;6293584;28;20126;-70
2022/01/26 03:52:04;;;;;;;23.08;10.73;;;4.60;60.30;;;;;;6283176;28;20054;-70
2022/01/26 03:55:05;;;;;;;27.10;10.85;;;4.60;60.40;;;;;;6317902;28;20028;-69
2022/01/26 03:58:06;;;;;;;26.75;10.10;;;4.60;60.40;;;;;;6300322;28;20028;-70
2022/01/26 04:01:07;;;;;;;24.23;10.77;;;4.60;60.40;;;;;;6300557;28;20362;-70
2022/01/26 04:04:08;;;;;;;20.13;8.75;;;4.60;60.50;;;;;;6298719;28;20062;-70
2022/01/26 04:07:09;;;;;;;30.13;10.65;;;4.60;60.60;;;;;;6298011;28;20061;-70
2022/01/26 04:10:25;;;;;;;28.42;10.45;;;4.60;60.60;;;;;;6283439;28;20042;-70
2022/01/26 04:13:26;;;;;;;27.00;9.23;;;4.60;60.60;;;;;;6316954;28;20032;-70
2022/01/26 04:16:27;;;;;;;25.55;10.35;;;4.60;60.60;;;;;;6300413;28;20448;-70
2022/01/26 04:19:31;;;;;;;20.85;9.85;;;4.60;60.70;;;;;;6317686;28;20365;-70
2022/01/26 04:22:44;;;;;;;30.85;11.43;;;4.60;60.70;;;;;;6317753;28;20485;-69
2022/01/26 04:25:47;;;;;;;24.95;9.88;;;4.60;60.60;;;;;;6315500;28;20411;-70
2022/01/26 04:28:54;;;;;;;35.22;9.90;;;4.70;60.50;;;;;;6317835;28;20028;-69
2022/01/26 04:31:56;;;;;;;24.77;10.60;;;4.60;60.50;;;;;;6315964;28;20044;-70
2022/01/26 04:34:57;;;;;;;22.75;10.63;;;4.70;60.50;;;;;;6282938;28;20051;-71
2022/01/26 04:41:33;;;;;;;20.77;9.05;;;4.70;60.40;;;;;;6317689;28;20028;-71
2022/01/26 04:44:41;;;;;;;32.08;11.00;;;4.70;60.40;;;;;;6317614;28;20028;-69
2022/01/26 04:47:42;;;;;;;28.33;10.00;;;4.80;60.40;;;;;;6316558;28;20060;-70
2022/01/26 04:50:43;;;;;;;22.08;9.15;;;4.80;60.30;;;;;;6317145;28;20032;-71
2022/01/26 04:53:44;;;;;;;20.40;8.50;;;4.80;60.40;;;;;;6317492;28;20452;-69
2022/01/26 04:56:46;;;;;;;27.98;10.02;;;4.80;60.30;;;;;;6299706;28;20534;-71
2022/01/26 04:59:46;;;;;;;17.33;8.85;;;4.90;60.20;;;;;;6317245;28;20021;-69
2022/01/26 05:02:47;;;;;;;35.92;10.38;;;4.80;60.10;;;;;;6316665;28;20020;-69
2022/01/26 05:05:48;;;;;;;28.27;10.85;;;4.80;60.00;;;;;;6322079;28;20085;-70
2022/01/26 05:08:49;;;;;;;26.77;9.48;;;4.80;60.00;;;;;;6287691;28;20036;-70
2022/01/26 05:11:53;;;;;;;21.30;9.55;;;4.80;59.90;;;;;;6304504;28;20498;-70
2022/01/26 05:14:54;;;;;;;29.77;9.48;;;4.80;59.90;;;;;;6304271;28;20039;-70
2022/01/26 05:17:54;;;;;;;20.73;8.98;;;4.80;59.90;;;;;;6321954;28;20353;-70
2022/01/26 05:20:56;;;;;;;16.67;8.68;;;4.80;59.90;;;;;;6304160;28;20034;-70
2022/01/26 05:23:57;;;;;;;25.75;9.50;;;4.70;59.90;;;;;;6296797;28;20594;-70
2022/01/26 05:26:58;;;;;;;24.27;10.05;;;4.70;59.90;;;;;;6281602;28;20059;-71
2022/01/26 05:29:59;;;;;;;21.73;8.20;;;4.70;60.00;;;;;;6321860;28;20334;-70
2022/01/26 05:33:00;;;;;;;30.88;10.73;;;4.60;60.00;;;;;;6321399;28;20101;-70
2022/01/26 05:36:01;;;;;;;18.92;9.75;;;4.60;60.10;;;;;;6321609;28;20053;-70
2022/01/26 05:39:03;;;;;;;28.48;11.85;;;4.60;60.20;;;;;;6303505;28;20035;-70
2022/01/26 05:42:06;;;;;;;20.27;9.25;;;4.50;60.30;;;;;;6321730;28;20585;-70
2022/01/26 05:45:18;;;;;;;22.20;10.35;;;4.50;60.50;;;;;;6300358;28;20039;-70
2022/01/26 05:48:18;;;;;;;23.38;10.55;;;4.40;60.50;;;;;;6319508;28;20032;-70
2022/01/26 05:51:19;;;;;;;20.55;10.18;;;4.40;60.50;;;;;;6303214;28;20081;-71
2022/01/26 05:54:20;;;;;;;26.10;10.23;;;4.40;60.70;;;;;;6303288;28;20056;-70
2022/01/26 05:57:21;;;;;;;24.77;10.73;;;4.40;60.80;;;;;;6303386;28;20043;-70
2022/01/26 06:00:22;;;;;;;20.83;9.98;;;4.40;60.80;;;;;;6303180;28;20035;-70
2022/01/26 06:03:23;;;;;;;33.97;11.90;;;4.40;60.90;;;;;;6294884;28;20024;-69
2022/01/26 06:06:23;;;;;;;26.83;10.35;;;4.30;60.90;;;;;;6302984;28;20356;-71
2022/01/26 06:09:25;;;;;;;27.17;9.57;;;4.40;61.10;;;;;;6285926;28;20050;-71
2022/01/26 06:12:33;;;;;;;27.90;11.50;;;4.40;61.00;;;;;;6286047;28;20028;-71
2022/01/26 06:15:34;;;;;;;31.90;10.50;;;4.40;61.00;;;;;;6295599;28;20024;-70
2022/01/26 06:18:35;;;;;;;17.50;8.77;;;4.40;61.00;;;;;;6302106;28;20048;-71
2022/01/26 06:21:36;;;;;;;24.30;10.35;;;4.40;60.90;;;;;;6285838;28;20032;-70
2022/01/26 06:24:36;;;;;;;23.08;10.90;;;4.40;60.80;;;;;;6319368;28;20044;-71
2022/01/26 06:27:39;;;;;;;23.00;11.48;;;4.50;60.90;;;;;;6301874;28;20472;-71
2022/01/26 06:30:44;;;;;;;32.50;12.05;;;4.50;60.90;;;;;;6320382;28;20020;-71
2022/01/26 06:33:47;;;;;;;26.55;12.20;;;4.50;60.90;;;;;;6297590;28;20067;-71
2022/01/26 06:36:48;;;;;;;31.30;11.15;;;4.50;60.80;;;;;;6278983;28;20028;-71
2022/01/26 06:39:49;;;;;;;27.73;11.70;;;4.50;60.80;;;;;;6297909;28;20468;-70
2022/01/26 06:42:54;;;;;;;23.95;10.35;;;4.50;60.90;;;;;;6301768;28;20028;-70
2022/01/26 06:46:01;;;;;;;24.67;10.75;;;4.50;60.90;;;;;;6301915;28;20025;-70
2022/01/26 06:49:28;;;;;;;24.87;9.43;;;4.40;60.70;;;;;;6301565;28;20063;-70
2022/01/26 06:52:23;;;;;;;20.17;9.00;;;4.40;60.80;;;;;;6319275;28;20028;-70
2022/01/26 06:55:24;;;;;;;23.42;9.10;;;4.30;61.20;;;;;;6319152;28;20039;-70
2022/01/26 06:58:25;;;;;;;20.90;9.15;;;4.30;61.10;;;;;;6301417;28;20024;-71
2022/01/26 07:01:26;;;;;;;17.52;9.15;;;4.30;61.30;;;;;;6301342;28;20449;-70
2022/01/26 07:04:27;;;;;;;18.88;8.50;;;4.20;61.30;;;;;;6300532;28;20032;-70
2022/01/26 07:07:28;;;;;;;25.20;9.85;;;4.20;61.40;;;;;;6300602;28;20178;-70
2022/01/26 07:10:29;;;;;;;23.65;9.55;;;4.20;61.70;;;;;;6295761;28;20032;-70
2022/01/26 07:13:30;;;;;;;24.75;9.48;;;4.20;61.80;;;;;;6318914;28;20441;-70
2022/01/26 07:19:55;;;;;;;46.53;9.88;;;4.30;61.80;;;;;;6318434;28;20024;-71
2022/01/26 07:22:56;;;;;;;33.65;9.60;;;4.20;61.60;;;;;;6299640;28;20602;-70
2022/01/26 07:25:57;;;;;;;23.75;10.80;;;4.30;61.60;;;;;;6299198;28;20109;-70
2022/01/26 07:29:12;;;;;;;18.85;10.27;;;4.30;61.60;;;;;;6283654;28;20109;-72
2022/01/26 07:32:12;;;;;;;40.35;10.43;;;4.30;61.50;;;;;;6300532;28;20032;-72
2022/01/26 07:35:13;;;;;;;36.92;12.30;;;4.30;61.50;;;;;;6318135;28;20024;-69
2022/01/26 07:38:15;;;;;;;26.17;10.13;;;4.30;61.50;;;;;;6300274;28;20020;-70
2022/01/26 07:41:17;;;;;;;33.03;8.88;;;4.30;61.60;;;;;;6317219;28;20301;-71
2022/01/26 07:44:17;;;;;;;17.88;7.60;;;4.30;61.40;;;;;;6317867;28;20028;-73
2022/01/26 07:47:18;;;;;;;24.42;9.93;;;4.40;61.40;;;;;;6317702;28;20047;-70
2022/01/26 07:50:20;;;;;;;25.48;10.70;;;4.40;61.20;;;;;;6318015;28;20031;-69
2022/01/26 07:53:21;;;;;;;19.70;9.20;;;4.40;61.10;;;;;;6317200;28;20126;-72
2022/01/26 07:56:22;;;;;;;28.27;10.38;;;4.40;61.00;;;;;;6318235;28;20464;-70
2022/01/26 07:59:23;;;;;;;25.35;11.07;;;4.40;61.00;;;;;;6281213;28;20167;-70
2022/01/26 08:02:24;;;;;;;24.35;13.07;;;4.40;61.00;;;;;;6317615;28;20028;-71
2022/01/26 08:05:25;;;;;;;33.90;10.45;;;4.40;61.00;;;;;;6298936;28;20028;-70
2022/01/26 08:08:27;;;;;;;33.28;11.88;;;4.40;60.90;;;;;;6312997;28;20031;-71
2022/01/26 08:11:28;;;;;;;31.98;11.55;;;4.50;60.90;;;;;;6283581;28;20075;-71
2022/01/26 08:14:28;;;;;;;27.75;13.70;;;4.50;61.00;;;;;;6299961;28;20032;-70
2022/01/26 08:17:29;;;;;;;38.70;13.45;;;4.60;61.30;;;;;;6299853;28;20028;-71
2022/01/26 08:20:30;;;;;;;30.85;11.07;;;4.70;60.90;;;;;;6317325;28;20040;-71
2022/01/26 08:23:32;;;;;;;27.30;11.80;;;4.70;60.70;;;;;;6317503;28;20055;-70
2022/01/26 08:26:40;;;;;;;23.65;11.93;;;4.80;60.70;;;;;;6317329;28;20039;-72
2022/01/26 08:29:45;;;;;;;31.05;12.32;;;4.80;60.50;;;;;;6299639;28;20020;-71
2022/01/26 08:32:46;;;;;;;29.55;13.10;;;4.90;60.30;;;;;;6296831;28;20059;-72
2022/01/26 08:35:47;;;;;;;35.10;13.88;;;4.90;60.00;;;;;;6315753;28;20032;-71
2022/01/26 08:38:48;;;;;;;38.13;14.07;;;4.90;60.00;;;;;;6310199;28;20039;-70
2022/01/26 08:41:49;;;;;;;27.13;13.52;;;4.90;59.90;;;;;;6281559;28;20036;-70
2022/01/26 08:44:51;;;;;;;29.88;12.50;;;4.90;59.90;;;;;;6295786;28;20051;-70
2022/01/26 08:47:52;;;;;;;38.97;15.98;;;5.00;59.90;;;;;;6299252;28;20109;-71
2022/01/26 08:50:53;;;;;;;40.90;15.32;;;5.10;60.00;;;;;;6298937;28;20270;-71
2022/01/26 08:53:54;;;;;;;38.75;14.98;;;5.20;59.90;;;;;;6282558;28;20119;-71
2022/01/26 08:56:55;;;;;;;32.67;12.93;;;5.30;59.80;;;;;;6299387;28;20501;-71
2022/01/26 08:59:58;;;;;;;36.33;13.70;;;5.40;59.70;;;;;;6299264;28;20620;-70
2022/01/26 09:02:59;;;;;;;30.05;11.68;;;5.50;59.50;;;;;;6297742;28;20047;-69
2022/01/26 09:06:00;;;;;;;29.67;12.45;;;5.60;59.30;;;;;;6281693;28;20495;-72
2022/01/26 09:09:06;;;;;;;31.23;11.70;;;5.60;59.10;;;;;;6315807;28;20024;-71
2022/01/26 09:12:09;;;;;;;31.15;12.75;;;5.70;59.10;;;;;;6298099;28;20123;-70
2022/01/26 09:15:12;;;;;;;23.70;10.48;;;6.00;59.10;;;;;;6298845;28;20039;-72
2022/01/26 09:18:18;;;;;;;31.20;12.82;;;5.90;58.70;;;;;;6298005;28;20085;-70
2022/01/26 09:21:19;;;;;;;35.60;11.25;;;6.00;58.60;;;;;;6298905;28;20385;-72
2022/01/26 09:24:20;;;;;;;24.17;9.77;;;6.10;58.50;;;;;;6315447;28;20136;-71
2022/01/26 09:27:21;;;;;;;25.85;11.55;;;6.20;58.20;;;;;;6298982;28;20476;-70
2022/01/26 09:30:22;;;;;;;29.83;11.00;;;6.30;57.90;;;;;;6281950;28;20028;-71
2022/01/26 09:33:23;;;;;;;26.17;12.10;;;6.30;57.70;;;;;;6298257;28;20032;-70
2022/01/26 09:36:27;;;;;;;25.33;11.50;;;6.30;57.50;;;;;;6316046;28;20114;-70
2022/01/26 09:39:28;;;;;;;29.42;10.18;;;6.30;57.40;;;;;;6294371;28;20088;-69
2022/01/26 09:42:32;;;;;;;31.63;12.43;;;6.40;57.40;;;;;;6314695;28;20411;-70
2022/01/26 09:45:35;;;;;;;35.55;12.15;;;6.40;57.30;;;;;;6281915;28;20075;-70
2022/01/26 09:48:38;;;;;;;24.65;10.43;;;6.40;57.40;;;;;;6297190;28;20342;-70
2022/01/26 09:51:43;;;;;;;26.65;10.77;;;6.50;57.30;;;;;;6316772;28;20444;-71
2022/01/26 09:54:44;;;;;;;36.70;11.35;;;6.60;57.30;;;;;;6318540;28;20353;-70
2022/01/26 09:57:44;;;;;;;35.58;13.25;;;6.70;57.30;;;;;;6301277;28;20032;-71
2022/01/26 10:00:45;;;;;;;29.65;12.30;;;6.80;57.10;;;;;;6320249;28;20032;-71
2022/01/26 10:03:47;;;;;;;33.97;13.52;;;6.90;56.80;;;;;;6301875;28;20052;-71
2022/01/26 10:07:15;;;;;;;22.42;9.57;;;6.90;56.70;;;;;;6319456;28;20028;-71
2022/01/26 10:19:42;;;;;;;49.97;15.93;;;7.20;55.70;;;;;;6301846;28;20051;-71
2022/01/26 10:22:43;;;;;;;29.80;11.75;;;7.50;55.60;;;;;;6317976;28;20028;-71
2022/01/26 10:26:06;;;;;;;26.60;12.73;;;7.80;55.20;;;;;;6318474;28;20043;-71
2022/01/26 10:29:07;;;;;;;35.28;12.23;;;8.10;54.40;;;;;;6318986;28;20039;-70
2022/01/26 10:32:12;;;;;;;54.08;17.30;;;8.40;54.00;;;;;;6300008;28;20024;-70
2022/01/26 10:35:16;;;;;;;42.88;12.77;;;8.50;53.40;;;;;;6301136;28;20028;-71
2022/01/26 10:38:17;;;;;;;36.80;11.73;;;8.60;53.20;;;;;;6293585;28;20140;-71
2022/01/26 10:41:19;;;;;;;42.13;14.27;;;8.80;52.70;;;;;;6300997;28;20039;-71
2022/01/26 10:45:03;;;;;;;27.40;12.80;;;9.00;52.40;;;;;;6301176;28;20016;-71
2022/01/26 10:48:21;;;;;;;35.15;13.52;;;9.20;52.10;;;;;;6318133;28;20059;-70
2022/01/26 10:51:38;;;;;;;35.35;15.05;;;9.50;51.80;;;;;;6310679;28;20046;-72
2022/01/26 10:54:40;;;;;;;33.30;13.02;;;9.70;51.30;;;;;;6318121;28;20119;-72
2022/01/26 10:57:41;;;;;;;36.80;13.50;;;10.00;50.70;;;;;;6318739;28;20032;-71
2022/01/26 11:00:42;;;;;;;43.53;14.63;;;10.30;50.40;;;;;;6283422;28;20169;-72
2022/01/26 11:03:43;;;;;;;29.40;12.75;;;10.60;49.20;;;;;;6316127;28;20403;-70
2022/01/26 11:06:50;;;;;;;39.22;12.85;;;10.80;48.60;;;;;;6299735;28;20137;-71
2022/01/26 11:09:51;;;;;;;31.98;13.02;;;10.90;47.90;;;;;;6318021;28;20349;-72
2022/01/26 11:12:52;;;;;;;39.50;14.38;;;11.10;47.30;;;;;;6318212;28;20020;-73
2022/01/26 11:16:05;;;;;;;42.28;13.80;;;11.30;46.40;;;;;;6283013;28;20032;-72
2022/01/26 11:19:14;;;;;;;48.22;17.88;;;11.50;46.00;;;;;;6299793;28;20032;-72
2022/01/26 11:22:15;;;;;;;43.78;17.75;;;11.70;45.60;;;;;;6317892;28;20028;-71
2022/01/26 11:25:16;;;;;;;25.88;11.88;;;11.90;45.30;;;;;;6298826;28;20054;-70
2022/01/26 11:28:23;;;;;;;30.17;13.90;;;12.30;45.30;;;;;;6299402;28;20127;-72
2022/01/26 11:31:25;;;;;;;28.80;10.60;;;12.70;44.50;;;;;;6317176;28;20096;-72
2022/01/26 11:34:28;;;;;;;32.28;12.50;;;13.30;43.00;;;;;;6317393;28;20066;-72
2022/01/26 11:37:39;;;;;;;28.10;10.18;;;13.70;41.70;;;;;;6317091;28;20400;-72
2022/01/26 11:47:57;;;;;;;20.42;10.52;;;14.90;39.00;;;;;;6296800;28;20679;-71
2022/01/26 11:51:03;;;;;;;30.95;11.60;;;15.40;37.80;;;;;;6299549;28;20039;-72
2022/01/26 11:54:18;;;;;;;25.92;11.65;;;15.80;37.10;;;;;;6299314;28;20082;-71
2022/01/26 11:57:42;;;;;;;27.08;11.32;;;16.20;36.40;;;;;;6317605;28;20056;-70
2022/01/26 12:00:55;;;;;;;19.05;8.85;;;16.60;35.10;;;;;;6299306;28;20039;-72
2022/01/26 12:04:03;;;;;;;22.25;9.85;;;17.00;33.90;;;;;;6298642;28;20425;-71
2022/01/26 12:07:19;;;;;;;24.48;8.48;;;17.40;32.60;;;;;;6317169;28;20047;-71
2022/01/26 12:10:29;;;;;;;23.08;8.30;;;17.50;32.00;;;;;;6296657;28;20038;-70
2022/01/26 12:13:32;;;;;;;20.48;10.15;;;16.90;32.80;;;;;;6298168;28;20416;-75
2022/01/26 12:16:41;;;;;;;21.27;9.20;;;16.30;34.20;;;;;;6309405;28;20096;-71
2022/01/26 12:20:03;;;;;;;23.63;10.20;;;15.70;35.10;;;;;;6298257;28;20036;-71
2022/01/26 12:37:12;;;;;;;18.58;9.20;;;13.20;39.20;;;;;;6298961;28;20341;-71
2022/01/26 12:43:49;;;;;;;19.90;9.30;;;12.80;39.90;;;;;;6316482;28;20441;-70
2022/01/26 12:46:50;;;;;;;23.23;10.13;;;12.50;40.30;;;;;;6293163;28;20184;-72
2022/01/26 12:49:51;;;;;;;24.92;9.50;;;12.40;40.70;;;;;;6285380;28;20132;-71
2022/01/26 12:52:55;;;;;;;22.20;9.10;;;12.30;40.90;;;;;;6303810;28;20131;-70
2022/01/26 12:55:58;;;;;;;30.95;9.35;;;12.10;41.00;;;;;;6319414;28;20048;-71
2022/01/26 12:59:11;;;;;;;22.17;9.43;;;12.10;41.30;;;;;;6299056;28;20028;-71
2022/01/26 13:02:12;;;;;;;25.30;9.23;;;12.00;41.40;;;;;;6298600;28;20445;-71
2022/01/26 13:05:15;;;;;;;19.77;8.70;;;12.00;41.40;;;;;;6296712;28;20031;-70
2022/01/26 13:08:16;;;;;;;27.02;8.35;;;12.00;41.40;;;;;;6280488;28;20353;-71
2022/01/26 13:11:33;;;;;;;23.70;9.38;;;11.90;41.50;;;;;;6281542;28;20036;-70
2022/01/26 13:14:56;;;;;;;15.60;6.30;;;12.00;41.70;;;;;;6316201;28;20052;-72
2022/01/26 13:18:08;;;;;;;19.55;8.07;;;11.90;41.50;;;;;;6297245;28;20025;-70
2022/01/26 13:28:10;;;;;;;13.70;6.65;;;11.80;41.30;;;;;;6303256;28;20032;-70
2022/01/26 13:31:45;;;;;;;15.02;6.88;;;11.80;41.70;;;;;;6321115;28;20625;-72
2022/01/26 13:38:17;;;;;;;18.10;6.53;;;11.80;41.60;;;;;;6299239;28;20033;-71
2022/01/26 13:41:30;;;;;;;14.32;6.35;;;11.80;41.70;;;;;;6302274;28;20024;-70
2022/01/26 14:00:41;;;;;;;16.05;6.63;;;11.80;41.40;;;;;;6177879;28;20026;-72
2022/01/26 14:03:45;;;;;;;13.15;5.97;;;11.80;41.40;;;;;;6192731;28;20069;-70
2022/01/26 14:06:48;;;;;;;15.70;6.88;;;11.90;41.30;;;;;;6176503;28;20099;-71
2022/01/26 14:09:48;;;;;;;13.65;6.60;;;11.90;41.20;;;;;;6193279;28;20069;-72
2022/01/26 14:12:50;;;;;;;15.57;6.22;;;11.90;41.30;;;;;;6193480;28;20070;-71
2022/01/26 14:15:54;;;;;;;16.10;7.35;;;12.00;41.40;;;;;;6176360;28;20053;-70
2022/01/26 14:25:48;;;;;;;17.10;7.28;;;12.10;41.30;;;;;;6180988;28;20096;-72
2022/01/26 14:28:49;;;;;;;20.05;6.55;;;12.10;41.10;;;;;;6159418;28;20051;-71
2022/01/26 14:35:16;;;;;;;20.50;6.50;;;12.10;40.60;;;;;;6186608;28;20420;-70
2022/01/26 15:22:32;;;;;;;20.45;7.15;;;12.20;41.00;;;;;;6293195;28;20369;-73
2022/01/26 15:33:44;;;;;;;14.45;6.97;;;12.20;41.10;;;;;;6299881;28;20028;-70
2022/01/26 15:49:50;;;;;;;25.00;5.90;;;12.00;40.80;;;;;;6318025;28;20378;-71
2022/01/26 17:26:11;;;;;;;22.92;9.02;;;9.90;45.40;;;;;;6320474;28;20097;-70
2022/01/26 18:50:08;;;;;;;27.98;11.52;;;7.40;51.10;;;;;;6241151;28;20025;-73
2022/01/26 18:53:09;;;;;;;33.70;13.40;;;7.40;51.40;;;;;;6241629;28;20457;-71
2022/01/26 18:56:10;;;;;;;34.03;12.30;;;7.30;51.60;;;;;;6242214;28;20483;-71
2022/01/26 18:59:12;;;;;;;42.35;13.40;;;7.30;51.80;;;;;;6241624;28;20044;-72
2022/01/26 19:02:13;;;;;;;35.55;14.45;;;7.20;51.80;;;;;;6224373;28;20072;-71
2022/01/26 19:05:14;;;;;;;38.10;13.48;;;7.20;51.90;;;;;;6224260;28;20438;-71
2022/01/26 19:08:15;;;;;;;32.28;13.18;;;7.10;52.00;;;;;;6239432;28;20111;-71
2022/01/26 19:11:19;;;;;;;33.85;12.18;;;7.00;52.10;;;;;;6241496;28;20528;-70
2022/01/26 19:14:32;;;;;;;29.23;10.68;;;7.00;52.30;;;;;;6288070;28;20176;-71
2022/01/26 19:17:43;;;;;;;31.67;12.30;;;7.00;52.40;;;;;;6318018;28;20028;-72
2022/01/26 19:20:58;;;;;;;34.75;13.35;;;6.90;52.60;;;;;;6295841;28;20024;-71
2022/01/26 19:44:08;;;;;;;34.47;13.98;;;6.50;53.40;;;;;;6232454;28;20064;-71
2022/01/26 19:47:18;;;;;;;33.08;12.43;;;6.40;53.50;;;;;;6240338;28;20208;-71
2022/01/26 19:53:40;;;;;;;34.50;13.50;;;6.40;53.70;;;;;;6240867;28;20518;-72
2022/01/26 19:56:41;;;;;;;39.33;15.20;;;6.30;53.80;;;;;;6240951;28;20504;-72
2022/01/26 19:59:42;;;;;;;49.83;15.73;;;6.30;53.90;;;;;;6240316;28;20108;-70
2022/01/26 20:02:45;;;;;;;39.80;13.48;;;6.20;53.90;;;;;;6233051;28;20116;-72
2022/01/26 20:05:46;;;;;;;34.08;14.57;;;6.20;54.00;;;;;;6317472;28;20039;-71
2022/01/26 20:09:01;;;;;;;33.85;14.43;;;6.10;54.00;;;;;;6300032;28;20038;-71
2022/01/26 20:12:07;;;;;;;34.50;12.50;;;6.10;54.30;;;;;;6283536;28;20040;-72
2022/01/26 20:15:08;;;;;;;42.47;13.15;;;6.00;54.40;;;;;;6309553;28;20039;-70
2022/01/26 20:18:09;;;;;;;33.40;14.43;;;6.00;54.50;;;;;;6300049;28;20024;-71
2022/01/26 20:21:10;;;;;;;36.47;13.63;;;5.90;54.50;;;;;;6299304;28;20028;-70
2022/01/26 20:24:14;;;;;;;38.88;15.45;;;5.80;54.60;;;;;;6274637;28;20063;-72
2022/01/26 20:27:19;;;;;;;31.05;13.32;;;5.80;54.70;;;;;;6291694;28;20036;-71
2022/01/26 20:30:23;;;;;;;44.20;14.27;;;5.30;54.60;;;;;;6293140;28;20045;-71
2022/01/26 20:33:24;;;;;;;47.65;14.32;;;5.70;55.00;;;;;;6291533;28;20111;-72
2022/01/26 20:36:28;;;;;;;31.58;12.90;;;5.60;55.00;;;;;;6289439;28;20024;-72
2022/01/26 20:39:31;;;;;;;32.67;13.00;;;5.60;55.10;;;;;;6274734;28;20028;-71
2022/01/26 20:42:32;;;;;;;41.03;15.07;;;5.50;55.20;;;;;;6293054;28;20670;-72
2022/01/26 20:45:33;;;;;;;46.00;14.02;;;5.50;55.30;;;;;;6293296;28;20515;-71
2022/01/26 20:48:34;;;;;;;30.38;13.48;;;5.50;55.40;;;;;;6291291;28;20029;-70
2022/01/26 20:51:35;;;;;;;37.53;12.55;;;5.50;55.40;;;;;;6292738;28;20025;-71
2022/01/26 20:54:36;;;;;;;33.58;12.45;;;5.50;55.50;;;;;;6290922;28;20044;-71
2022/01/26 20:57:39;;;;;;;29.70;12.95;;;5.40;55.60;;;;;;6292682;28;20032;-70
2022/01/26 21:00:40;;;;;;;32.28;13.63;;;5.40;55.70;;;;;;6291233;28;20715;-70
2022/01/26 21:03:41;;;;;;;43.40;13.65;;;5.40;55.80;;;;;;6291966;28;20460;-71
2022/01/26 21:06:42;;;;;;;30.48;12.32;;;5.30;55.80;;;;;;6291890;28;20021;-71
2022/01/26 21:09:43;;;;;;;41.67;14.95;;;5.30;55.90;;;;;;6286265;28;20056;-70
2022/01/26 21:12:44;;;;;;;32.75;13.27;;;5.30;56.00;;;;;;6291287;28;20040;-71
2022/01/26 21:15:45;;;;;;;34.58;13.27;;;5.30;56.10;;;;;;6291573;28;20028;-71
2022/01/26 21:18:46;;;;;;;37.55;14.25;;;5.20;56.10;;;;;;6292123;28;20040;-71
2022/01/26 21:21:47;;;;;;;34.88;13.13;;;5.20;56.20;;;;;;6274184;28;20082;-70
2022/01/26 21:24:48;;;;;;;40.80;14.10;;;5.20;56.30;;;;;;6290027;28;20047;-71
2022/01/26 21:27:50;;;;;;;40.40;14.20;;;5.20;56.40;;;;;;6291028;28;20084;-71
2022/01/26 21:30:51;;;;;;;38.25;14.80;;;5.10;56.40;;;;;;6290982;28;20063;-72
2022/01/26 21:33:52;;;;;;;36.20;12.85;;;5.10;56.50;;;;;;6290343;28;20388;-71
2022/01/26 21:36:53;;;;;;;33.70;12.70;;;5.10;56.60;;;;;;6290477;28;20035;-71
2022/01/26 21:39:54;;;;;;;37.03;15.05;;;5.10;56.70;;;;;;6274183;28;20032;-70
2022/01/26 21:42:54;;;;;;;33.30;14.75;;;5.10;56.80;;;;;;6290987;28;20028;-71
2022/01/26 21:45:55;;;;;;;41.58;15.40;;;5.10;56.90;;;;;;6293892;28;20029;-72
2022/01/26 21:48:56;;;;;;;39.53;15.10;;;5.40;57.10;;;;;;6296795;28;20033;-71
2022/01/26 21:51:57;;;;;;;40.80;14.48;;;5.10;56.90;;;;;;6295399;28;20058;-72
2022/01/26 21:54:59;;;;;;;37.10;14.38;;;5.00;56.80;;;;;;6292867;28;20025;-73
2022/01/26 21:58:00;;;;;;;36.67;15.20;;;5.10;56.90;;;;;;6278939;28;20095;-72
2022/01/26 22:01:01;;;;;;;37.47;14.70;;;5.00;56.90;;;;;;6304443;28;20021;-73
2022/01/26 22:04:05;;;;;;;39.47;14.20;;;5.00;56.90;;;;;;6296541;28;20021;-72
2022/01/26 22:07:06;;;;;;;34.63;13.77;;;5.00;56.90;;;;;;6295123;28;20028;-71
2022/01/26 22:10:07;;;;;;;33.10;13.13;;;5.00;57.00;;;;;;6291879;28;20049;-71
2022/01/26 22:13:08;;;;;;;32.10;13.23;;;5.00;56.90;;;;;;6293563;28;20667;-72
2022/01/26 22:16:09;;;;;;;38.33;13.88;;;5.10;57.00;;;;;;6278433;28;20274;-70
2022/01/26 22:19:11;;;;;;;33.72;12.65;;;5.10;56.90;;;;;;6296272;28;20040;-72
2022/01/26 22:22:13;;;;;;;25.35;13.25;;;5.10;56.90;;;;;;6295990;28;20190;-72
2022/01/26 22:25:16;;;;;;;40.08;14.57;;;5.10;56.90;;;;;;6294581;28;20049;-69
2022/01/26 22:28:20;;;;;;;37.75;14.00;;;5.10;57.00;;;;;;6295581;28;20104;-71
2022/01/26 22:31:21;;;;;;;39.65;14.90;;;5.20;57.10;;;;;;6288246;28;20028;-70
2022/01/26 22:34:23;;;;;;;38.78;14.60;;;5.20;57.10;;;;;;6295237;28;20174;-71
2022/01/26 22:37:25;;;;;;;45.35;13.75;;;5.30;57.20;;;;;;6294479;28;20484;-71
2022/01/26 22:40:32;;;;;;;37.67;14.50;;;5.30;57.30;;;;;;6272429;28;20059;-71
2022/01/26 22:43:33;;;;;;;36.22;14.23;;;5.30;57.40;;;;;;6295378;28;20020;-71
2022/01/26 22:46:33;;;;;;;39.17;13.38;;;5.40;57.30;;;;;;6293908;28;20033;-71
2022/01/26 22:49:34;;;;;;;40.15;14.57;;;5.40;57.30;;;;;;6294159;28;20255;-72